createdAt,value
2022-09-23T00:00:35.223Z,48.81
2022-09-23T00:03:01.812Z,48.92
2022-09-23T00:05:29.813Z,48.92
2022-09-23T00:07:57.283Z,48.77
2022-09-23T00:10:25.158Z,48.83
2022-09-23T00:12:51.722Z,48.58
2022-09-23T00:15:18.458Z,48.78
2022-09-23T00:17:45.262Z,48.70
2022-09-23T00:20:12.176Z,48.57
2022-09-23T00:22:39.051Z,48.61
2022-09-23T00:25:07.018Z,48.96
2022-09-23T00:27:33.991Z,48.66
2022-09-23T00:30:01.151Z,48.66
2022-09-23T00:32:28.013Z,48.83
2022-09-23T00:34:54.492Z,48.76
2022-09-23T00:37:21.446Z,49.34
2022-09-23T00:39:47.977Z,49.23
2022-09-23T00:42:20.837Z,49.20
2022-09-23T00:44:48.960Z,49.20
2022-09-23T00:47:21.407Z,49.30
2022-09-23T00:49:54.478Z,49.57
2022-09-23T00:52:23.660Z,49.38
2022-09-23T00:54:53.389Z,49.19
2022-09-23T00:57:20.185Z,49.63
2022-09-23T00:59:48.576Z,49.39
2022-09-23T01:02:15.584Z,49.53
2022-09-23T01:04:42.850Z,49.42
2022-09-23T01:07:09.373Z,49.32
2022-09-23T01:09:36.379Z,49.65
2022-09-23T01:12:22.657Z,49.48
2022-09-23T01:15:14.440Z,49.67
2022-09-23T01:18:08.024Z,49.58
2022-09-23T01:20:34.565Z,49.75
2022-09-23T01:23:12.792Z,49.74
2022-09-23T01:25:42.248Z,49.65
2022-09-23T01:28:14.729Z,49.45
2022-09-23T01:31:02.841Z,49.37
2022-09-23T01:33:41.246Z,49.71
2022-09-23T01:36:10.400Z,49.55
2022-09-23T01:38:42.984Z,49.75
2022-09-23T01:41:13.261Z,49.36
2022-09-23T01:43:58.526Z,49.62
2022-09-23T01:46:51.278Z,49.46
2022-09-23T01:49:30.002Z,49.68
2022-09-23T01:52:06.036Z,49.83
2022-09-23T01:54:39.033Z,50.08
2022-09-23T01:57:11.576Z,50.01
2022-09-23T01:59:40.257Z,50.08
2022-09-23T02:02:32.927Z,50.02
2022-09-23T02:05:08.014Z,50.15
2022-09-23T02:07:52.612Z,50.30
2022-09-23T02:10:25.498Z,50.32
2022-09-23T02:12:57.334Z,50.33
2022-09-23T02:15:28.759Z,50.35
2022-09-23T02:18:00.037Z,50.20
2022-09-23T02:20:30.599Z,49.99
2022-09-23T02:23:03.624Z,50.22
2022-09-23T02:25:35.551Z,49.83
2022-09-23T02:28:29.128Z,50.18
2022-09-23T02:31:11.865Z,50.06
2022-09-23T02:33:43.896Z,49.77
2022-09-23T02:36:15.342Z,50.10
2022-09-23T02:38:51.195Z,49.88
2022-09-23T02:41:20.799Z,50.24
2022-09-23T02:43:59.601Z,50.13
2022-09-23T02:46:26.825Z,49.88
2022-09-23T02:49:04.591Z,50.04
2022-09-23T02:51:35.130Z,50.25
2022-09-23T02:54:03.552Z,50.19
2022-09-23T02:56:30.076Z,50.12
2022-09-23T02:58:57.038Z,49.87
2022-09-23T03:01:49.220Z,49.89
2022-09-23T03:04:50.417Z,50.11
2022-09-23T03:07:22.393Z,50.08
2022-09-23T03:10:07.950Z,49.90
2022-09-23T03:12:42.262Z,49.69
2022-09-23T03:15:30.130Z,49.90
2022-09-23T03:18:15.986Z,49.99
2022-09-23T03:20:50.430Z,50.01
2022-09-23T03:23:21.487Z,49.91
2022-09-23T03:25:49.891Z,49.89
2022-09-23T03:28:17.623Z,50.00
2022-09-23T03:30:44.648Z,49.96
2022-09-23T03:33:13.360Z,49.79
2022-09-23T03:36:07.113Z,49.74
2022-09-23T03:38:39.118Z,50.00
2022-09-23T03:41:06.044Z,49.87
2022-09-23T03:43:38.012Z,49.92
2022-09-23T03:46:07.293Z,49.89
2022-09-23T03:48:34.018Z,49.82
2022-09-23T03:51:09.045Z,49.95
2022-09-23T03:53:35.731Z,49.86
2022-09-23T03:56:02.337Z,49.74
2022-09-23T03:58:28.798Z,49.86
2022-09-23T04:00:55.581Z,49.70
2022-09-23T04:03:22.734Z,49.59
2022-09-23T04:05:49.415Z,49.59
2022-09-23T04:08:15.950Z,49.75
2022-09-23T04:10:42.574Z,49.43
2022-09-23T04:13:12.253Z,49.64
2022-09-23T04:15:40.716Z,49.74
2022-09-23T04:18:07.466Z,49.52
2022-09-23T04:20:34.010Z,49.57
2022-09-23T04:23:00.499Z,49.57
2022-09-23T04:25:27.232Z,49.65
2022-09-23T04:27:53.839Z,49.60
2022-09-23T04:30:20.471Z,49.59
2022-09-23T04:32:47.007Z,49.67
2022-09-23T04:35:13.563Z,49.60
2022-09-23T04:37:40.098Z,49.76
2022-09-23T04:40:08.119Z,49.55
2022-09-23T04:42:34.842Z,49.63
2022-09-23T04:45:01.607Z,49.80
2022-09-23T04:47:29.278Z,49.70
2022-09-23T04:49:59.707Z,49.75
2022-09-23T04:52:27.207Z,49.76
2022-09-23T04:54:53.705Z,49.77
2022-09-23T04:57:20.170Z,49.96
2022-09-23T04:59:47.314Z,49.70
2022-09-23T05:02:14.842Z,49.93
2022-09-23T05:04:41.754Z,49.60
2022-09-23T05:07:08.228Z,49.93
2022-09-23T05:09:34.842Z,49.83
2022-09-23T05:12:02.145Z,49.83
2022-09-23T05:14:28.716Z,49.66
2022-09-23T05:16:55.205Z,50.02
2022-09-23T05:19:23.035Z,50.38
2022-09-23T05:21:49.681Z,49.79
2022-09-23T05:24:16.751Z,49.66
2022-09-23T05:26:43.489Z,49.57
2022-09-23T05:29:10.058Z,49.75
2022-09-23T05:31:36.941Z,49.59
2022-09-23T05:34:05.242Z,49.57
2022-09-23T05:36:37.946Z,49.66
2022-09-23T05:39:06.030Z,49.83
2022-09-23T05:41:33.843Z,49.69
2022-09-23T05:44:00.522Z,49.36
2022-09-23T05:46:29.512Z,49.26
2022-09-23T05:49:01.822Z,49.45
2022-09-23T05:51:31.174Z,49.19
2022-09-23T05:53:58.910Z,49.43
2022-09-23T05:56:27.703Z,49.30
2022-09-23T05:58:55.900Z,49.14
2022-09-23T06:01:25.466Z,49.47
2022-09-23T06:03:52.850Z,49.28
2022-09-23T06:06:21.556Z,49.28
2022-09-23T06:08:48.250Z,49.29
2022-09-23T06:11:15.094Z,49.08
2022-09-23T06:13:41.867Z,49.28
2022-09-23T06:16:14.188Z,49.09
2022-09-23T06:18:42.207Z,48.87
2022-09-23T06:21:10.625Z,48.95
2022-09-23T06:23:39.886Z,49.14
2022-09-23T06:26:10.675Z,48.72
2022-09-23T06:28:38.906Z,48.98
2022-09-23T06:31:13.304Z,48.88
2022-09-23T06:33:40.689Z,48.69
2022-09-23T06:36:07.792Z,48.73
2022-09-23T06:38:34.941Z,48.74
2022-09-23T06:41:04.528Z,48.54
2022-09-23T06:43:31.259Z,48.63
2022-09-23T06:46:00.030Z,48.59
2022-09-23T06:48:29.119Z,48.36
2022-09-23T06:50:59.944Z,48.30
2022-09-23T06:53:26.425Z,48.52
2022-09-23T06:56:11.516Z,48.46
2022-09-23T06:58:39.030Z,48.22
2022-09-23T07:01:08.739Z,48.29
2022-09-23T07:03:36.173Z,48.11
2022-09-23T07:06:03.491Z,48.04
2022-09-23T07:08:30.752Z,47.82
2022-09-23T07:10:59.035Z,48.07
2022-09-23T07:13:26.065Z,47.67
2022-09-23T07:15:54.420Z,47.62
2022-09-23T07:18:23.905Z,47.88
2022-09-23T07:20:50.593Z,47.49
2022-09-23T07:23:20.061Z,47.77
2022-09-23T07:25:50.293Z,47.42
2022-09-23T07:28:17.391Z,47.68
2022-09-23T07:30:56.654Z,47.49
2022-09-23T07:33:33.035Z,47.32
2022-09-23T07:36:13.416Z,47.52
2022-09-23T07:38:44.932Z,47.26
2022-09-23T07:41:14.231Z,47.39
2022-09-23T07:43:40.825Z,46.97
2022-09-23T07:46:10.986Z,47.06
2022-09-23T07:48:38.279Z,47.02
2022-09-23T07:51:09.628Z,46.89
2022-09-23T07:53:36.857Z,46.86
2022-09-23T07:56:07.419Z,46.73
2022-09-23T07:58:35.196Z,46.77
2022-09-23T08:01:05.503Z,46.43
2022-09-23T08:03:32.398Z,46.56
2022-09-23T08:06:13.069Z,46.35
2022-09-23T08:08:43.645Z,46.33
2022-09-23T08:11:12.439Z,46.25
2022-09-23T08:13:39.204Z,46.13
2022-09-23T08:16:06.811Z,46.00
2022-09-23T08:18:33.618Z,45.83
2022-09-23T08:21:00.181Z,45.56
2022-09-23T08:23:27.721Z,45.43
2022-09-23T08:25:59.892Z,45.32
2022-09-23T08:28:26.615Z,45.36
2022-09-23T08:30:53.162Z,45.25
2022-09-23T08:33:23.403Z,45.23
2022-09-23T08:35:50.932Z,45.08
2022-09-23T08:38:17.569Z,44.96
2022-09-23T08:40:48.807Z,44.55
2022-09-23T08:43:27.521Z,44.50
2022-09-23T08:45:55.860Z,44.32
2022-09-23T08:48:46.384Z,44.19
2022-09-23T08:51:15.954Z,44.08
2022-09-23T08:53:42.963Z,44.17
2022-09-23T08:56:18.200Z,43.94
2022-09-23T08:59:17.038Z,43.84
2022-09-23T09:01:52.598Z,43.92
2022-09-23T09:04:40.629Z,43.75
2022-09-23T09:07:31.804Z,43.69
2022-09-23T09:10:15.969Z,43.47
2022-09-23T09:13:04.152Z,43.73
2022-09-23T09:15:31.006Z,43.57
2022-09-23T09:18:01.380Z,43.41
2022-09-23T09:21:09.453Z,43.36
2022-09-23T09:23:43.082Z,43.21
2022-09-23T09:33:27.585Z,43.27
2022-09-23T09:36:09.077Z,43.05
2022-09-23T09:38:36.382Z,43.14
2022-09-23T09:41:21.498Z,42.97
2022-09-23T09:43:57.600Z,43.04
2022-09-23T09:46:24.470Z,42.87
2022-09-23T09:48:54.762Z,42.92
2022-09-23T09:51:27.656Z,42.84
2022-09-23T09:53:56.065Z,42.70
2022-09-23T09:56:31.042Z,42.85
2022-09-23T09:59:25.123Z,42.78
2022-09-23T10:02:31.774Z,42.52
2022-09-23T10:05:01.014Z,42.25
2022-09-23T10:07:34.434Z,42.28
2022-09-23T10:10:33.944Z,42.23
2022-09-23T10:13:15.096Z,42.52
2022-09-23T10:15:45.005Z,42.18
2022-09-23T10:18:19.837Z,42.10
2022-09-23T10:20:46.765Z,42.17
2022-09-23T10:23:23.003Z,41.86
2022-09-23T10:26:03.563Z,41.83
2022-09-23T10:28:41.969Z,41.89
2022-09-23T10:31:15.679Z,41.75
2022-09-23T10:33:50.925Z,41.56
2022-09-23T10:36:18.593Z,41.99
2022-09-23T10:38:49.052Z,41.70
2022-09-23T10:42:08.765Z,41.50
2022-09-23T10:45:22.746Z,41.71
2022-09-23T10:48:16.631Z,41.79
2022-09-23T10:50:49.774Z,41.69
2022-09-23T10:53:36.473Z,41.80
2022-09-23T10:56:42.668Z,41.79
2022-09-23T10:59:29.208Z,41.92
2022-09-23T11:02:18.993Z,42.09
2022-09-23T11:05:16.682Z,41.88
2022-09-23T11:08:12.511Z,42.08
2022-09-23T11:10:57.619Z,41.99
2022-09-23T11:13:43.762Z,42.13
2022-09-23T11:16:55.531Z,41.94
2022-09-23T11:19:33.101Z,42.35
2022-09-23T11:22:32.220Z,42.16
2022-09-23T11:25:11.964Z,42.37
2022-09-23T11:28:09.947Z,42.49
2022-09-23T11:30:59.769Z,42.55
2022-09-23T11:33:59.392Z,42.79
2022-09-23T11:36:42.347Z,42.83
2022-09-23T11:39:50.665Z,43.05
2022-09-23T11:42:27.808Z,43.23
2022-09-23T11:45:17.213Z,42.96
2022-09-23T11:47:50.104Z,43.00
2022-09-23T11:50:32.093Z,43.18
2022-09-23T11:53:29.712Z,43.35
2022-09-23T11:56:03.518Z,43.40
2022-09-23T11:58:44.065Z,43.07
2022-09-23T12:01:45.535Z,43.15
2022-09-23T12:04:23.775Z,43.10
2022-09-23T12:07:02.433Z,43.00
2022-09-23T12:09:57.746Z,43.18
2022-09-23T12:12:50.630Z,43.23
2022-09-23T12:15:21.971Z,43.07
2022-09-23T12:18:38.480Z,43.07
2022-09-23T12:21:48.678Z,43.37
2022-09-23T12:24:20.800Z,43.26
2022-09-23T12:26:57.832Z,43.24
2022-09-23T12:31:58.145Z,43.66
2022-09-23T12:34:30.242Z,43.65
2022-09-23T12:37:04.774Z,43.51
2022-09-23T12:39:36.225Z,43.38
2022-09-23T12:42:15.088Z,43.35
2022-09-23T12:44:44.401Z,43.44
2022-09-23T12:47:25.720Z,43.62
2022-09-23T12:49:54.159Z,43.68
2022-09-23T12:52:21.174Z,43.66
2022-09-23T12:54:50.101Z,43.44
2022-09-23T12:57:35.032Z,43.41
2022-09-23T13:00:14.022Z,43.39
2022-09-23T13:02:44.170Z,43.34
2022-09-23T13:05:37.942Z,43.27
2022-09-23T13:08:17.622Z,43.88
2022-09-23T13:10:56.158Z,43.85
2022-09-23T13:13:23.089Z,43.65
2022-09-23T13:15:50.179Z,43.87
2022-09-23T13:18:20.333Z,43.79
2022-09-23T13:20:49.744Z,43.64
2022-09-23T13:23:30.668Z,44.04
2022-09-23T13:26:00.136Z,44.21
2022-09-23T13:28:58.944Z,44.07
2022-09-23T13:31:26.136Z,44.18
2022-09-23T13:34:01.019Z,43.98
2022-09-23T13:36:27.583Z,44.17
2022-09-23T13:39:16.690Z,44.29
2022-09-23T13:41:44.521Z,44.43
2022-09-23T13:44:19.749Z,44.41
2022-09-23T13:46:52.081Z,44.48
2022-09-23T13:49:21.704Z,44.45
2022-09-23T13:51:48.394Z,44.39
2022-09-23T13:54:36.655Z,44.53
2022-09-23T13:57:03.798Z,44.75
2022-09-23T13:59:37.115Z,44.65
2022-09-23T14:02:10.747Z,44.90
2022-09-23T14:04:37.295Z,44.69
2022-09-23T14:07:04.478Z,44.93
2022-09-23T14:09:32.036Z,44.74
2022-09-23T14:12:00.198Z,44.92
2022-09-23T14:14:28.132Z,44.95
2022-09-23T14:16:56.056Z,45.02
2022-09-23T14:19:23.948Z,45.13
2022-09-23T14:21:53.018Z,45.18
2022-09-23T14:24:23.126Z,45.38
2022-09-23T14:26:56.718Z,45.33
2022-09-23T14:29:32.075Z,45.24
2022-09-23T14:32:01.901Z,45.47
2022-09-23T14:34:49.850Z,45.46
2022-09-23T14:37:51.405Z,45.48
2022-09-23T14:40:22.394Z,45.51
2022-09-23T14:42:52.563Z,45.68
2022-09-23T14:45:21.951Z,45.56
2022-09-23T14:47:51.411Z,45.53
2022-09-23T14:50:47.313Z,45.58
2022-09-23T14:53:22.846Z,45.55
2022-09-23T14:55:57.451Z,45.64
2022-09-23T14:58:28.590Z,45.75
2022-09-23T15:01:00.765Z,45.72
2022-09-23T15:03:28.587Z,45.61
2022-09-23T15:06:08.371Z,45.79
2022-09-23T15:08:35.525Z,45.91
2022-09-23T15:11:08.183Z,46.02
2022-09-23T15:13:39.373Z,46.01
2022-09-23T15:16:06.291Z,45.87
2022-09-23T15:18:35.452Z,46.13
2022-09-23T15:21:15.196Z,45.99
2022-09-23T15:23:41.682Z,46.11
2022-09-23T15:26:16.877Z,46.07
2022-09-23T15:28:44.208Z,46.21
2022-09-23T15:31:15.830Z,46.11
2022-09-23T15:33:44.158Z,46.08
2022-09-23T15:36:21.656Z,46.08
2022-09-23T15:38:48.817Z,46.26
2022-09-23T15:41:17.273Z,46.12
2022-09-23T15:43:44.116Z,46.21
2022-09-23T15:46:25.522Z,46.20
2022-09-23T15:48:59.078Z,46.25
2022-09-23T15:51:26.774Z,46.47
2022-09-23T15:53:55.151Z,46.46
2022-09-23T15:56:24.855Z,46.34
2022-09-23T15:58:51.413Z,46.49
2022-09-23T16:01:26.288Z,46.34
2022-09-23T16:03:52.817Z,46.60
2022-09-23T16:06:20.318Z,46.66
2022-09-23T16:08:47.295Z,46.75
2022-09-23T16:11:21.870Z,46.68
2022-09-23T16:13:48.484Z,46.63
2022-09-23T16:16:15.086Z,46.88
2022-09-23T16:18:43.813Z,46.87
2022-09-23T16:21:15.004Z,46.91
2022-09-23T16:23:43.529Z,46.95
2022-09-23T16:26:22.014Z,46.89
2022-09-23T16:28:50.319Z,47.01
2022-09-23T16:31:17.367Z,46.98
2022-09-23T16:33:47.906Z,46.93
2022-09-23T16:36:22.309Z,47.23
2022-09-23T16:38:48.908Z,46.99
2022-09-23T16:41:15.471Z,47.10
2022-09-23T16:43:41.940Z,46.98
2022-09-23T16:46:12.319Z,47.11
2022-09-23T16:48:40.741Z,47.07
2022-09-23T16:51:31.632Z,47.07
2022-09-23T16:53:59.615Z,47.26
2022-09-23T16:56:29.064Z,47.31
2022-09-23T16:58:56.514Z,47.26
2022-09-23T17:01:43.782Z,47.25
2022-09-23T17:04:10.700Z,47.15
2022-09-23T17:06:48.292Z,47.33
2022-09-23T17:09:14.817Z,47.36
2022-09-23T17:11:43.922Z,47.50
2022-09-23T17:14:10.492Z,47.35
2022-09-23T17:16:37.074Z,47.41
2022-09-23T17:19:08.158Z,47.36
2022-09-23T17:24:56.168Z,47.35
2022-09-23T17:27:24.882Z,47.42
2022-09-23T17:29:51.348Z,47.57
2022-09-23T17:32:18.087Z,47.44
2022-09-23T17:34:44.835Z,47.56
2022-09-23T17:37:11.310Z,47.50
2022-09-23T17:39:38.277Z,47.55
2022-09-23T17:42:05.077Z,47.55
2022-09-23T17:44:40.578Z,47.61
2022-09-23T17:47:07.036Z,47.68
2022-09-23T17:49:35.244Z,47.63
2022-09-23T17:52:05.304Z,47.71
2022-09-23T17:54:32.604Z,47.69
2022-09-23T17:56:59.893Z,47.67
2022-09-23T17:59:26.856Z,47.69
2022-09-23T18:01:54.124Z,47.66
2022-09-23T18:04:21.165Z,47.89
2022-09-23T18:06:47.812Z,47.66
2022-09-23T18:09:14.349Z,47.86
2022-09-23T18:11:43.364Z,47.86
2022-09-23T18:14:13.649Z,47.75
2022-09-23T18:16:41.904Z,47.77
2022-09-23T18:19:11.460Z,47.80
2022-09-23T18:21:40.803Z,47.90
2022-09-23T18:27:02.264Z,47.95
2022-09-23T18:29:29.509Z,48.02
2022-09-23T18:31:58.409Z,47.93
2022-09-23T18:34:26.363Z,48.03
2022-09-23T18:36:56.212Z,48.00
2022-09-23T18:39:22.821Z,48.16
2022-09-23T18:41:50.349Z,48.10
2022-09-23T18:44:17.408Z,48.26
2022-09-23T18:46:46.188Z,47.93
2022-09-23T18:49:32.567Z,48.10
2022-09-23T18:52:00.524Z,48.27
2022-09-23T18:54:28.670Z,48.28
2022-09-23T18:56:56.004Z,48.39
2022-09-23T18:59:26.793Z,48.29
2022-09-23T19:01:56.294Z,48.22
2022-09-23T19:04:24.920Z,48.36
2022-09-23T19:06:51.937Z,48.40
2022-09-23T19:09:19.352Z,48.25
2022-09-23T19:11:47.043Z,48.38
2022-09-23T19:14:15.591Z,48.39
2022-09-23T19:16:45.156Z,48.48
2022-09-23T19:19:12.782Z,48.45
2022-09-23T19:21:40.204Z,48.42
2022-09-23T19:24:12.186Z,48.42
2022-09-23T19:26:40.367Z,48.42
2022-09-23T19:29:13.249Z,48.48
2022-09-23T19:31:40.575Z,48.64
2022-09-23T19:34:18.759Z,48.57
2022-09-23T19:36:48.983Z,48.56
2022-09-23T19:39:20.583Z,48.32
2022-09-23T19:41:47.566Z,48.47
2022-09-23T19:44:16.794Z,48.33
2022-09-23T19:46:45.712Z,48.63
2022-09-23T19:49:13.919Z,48.46
2022-09-23T19:51:40.892Z,48.54
2022-09-23T19:54:10.731Z,48.58
2022-09-23T19:56:38.784Z,48.61
2022-09-23T19:59:09.639Z,48.73
2022-09-23T20:01:36.414Z,48.61
2022-09-23T20:04:05.249Z,48.82
2022-09-23T20:06:35.248Z,48.63
2022-09-23T20:09:02.200Z,48.69
2022-09-23T20:11:31.728Z,48.62
2022-09-23T20:14:09.513Z,48.69
2022-09-23T20:16:37.180Z,48.73
2022-09-23T20:19:07.153Z,48.75
2022-09-23T20:21:34.324Z,48.86
2022-09-23T20:24:04.417Z,48.84
2022-09-23T20:26:50.689Z,48.82
2022-09-23T20:29:19.412Z,48.77
2022-09-23T20:31:47.527Z,48.96
2022-09-23T20:34:16.565Z,48.75
2022-09-23T20:36:44.229Z,48.84
2022-09-23T20:39:12.429Z,48.74
2022-09-23T20:41:39.854Z,48.88
2022-09-23T20:44:12.236Z,48.91
2022-09-23T20:46:48.181Z,49.11
2022-09-23T20:49:18.745Z,49.01
2022-09-23T20:51:47.670Z,49.03
2022-09-23T20:54:14.249Z,49.00
2022-09-23T20:56:40.757Z,49.13
2022-09-23T20:59:08.410Z,49.11
2022-09-23T21:01:37.765Z,49.10
2022-09-23T21:04:06.226Z,49.15
2022-09-23T21:06:35.506Z,49.34
2022-09-23T21:09:02.185Z,49.11
2022-09-23T21:11:29.261Z,49.18
2022-09-23T21:13:56.531Z,49.20
2022-09-23T21:16:23.999Z,49.22
2022-09-23T21:18:51.600Z,49.28
2022-09-23T21:21:19.653Z,49.28
2022-09-23T21:23:46.728Z,49.03
2022-09-23T21:26:18.129Z,49.28
2022-09-23T21:28:50.071Z,49.45
2022-09-23T21:31:25.994Z,49.44
2022-09-23T21:33:57.008Z,49.36
2022-09-23T21:36:24.586Z,49.54
2022-09-23T21:38:52.014Z,49.51
2022-09-23T21:41:19.334Z,49.65
2022-09-23T21:43:46.299Z,49.59
2022-09-23T21:46:14.614Z,49.69
2022-09-23T21:48:44.390Z,49.53
2022-09-23T21:51:14.287Z,49.62
2022-09-23T21:53:42.006Z,49.58
2022-09-23T21:56:09.664Z,49.75
2022-09-23T21:58:38.594Z,49.81
2022-09-23T22:01:14.162Z,49.73
2022-09-23T22:03:41.110Z,49.79
2022-09-23T22:06:10.613Z,49.93
2022-09-23T22:08:39.222Z,49.76
2022-09-23T22:11:33.583Z,49.78
2022-09-23T22:14:03.062Z,49.79
2022-09-23T22:16:30.281Z,49.99
2022-09-23T22:18:58.480Z,50.05
2022-09-23T22:21:26.679Z,49.86
2022-09-23T22:23:57.627Z,50.01
2022-09-23T22:26:24.939Z,50.04
2022-09-23T22:29:09.957Z,50.12
2022-09-23T22:31:54.837Z,50.12
2022-09-23T22:34:48.016Z,50.00
2022-09-23T22:37:10.507Z,50.18
2022-09-23T22:39:37.047Z,50.32
2022-09-23T22:42:05.308Z,50.33
2022-09-23T22:44:32.115Z,50.27
2022-09-23T22:46:58.971Z,50.31
2022-09-23T22:49:25.482Z,50.35
2022-09-23T22:51:53.580Z,50.33
2022-09-23T22:54:22.202Z,50.58
2022-09-23T22:56:48.689Z,50.75
2022-09-23T22:59:15.166Z,50.64
2022-09-23T23:01:42.639Z,50.58
2022-09-23T23:04:11.208Z,50.72
2022-09-23T23:06:37.958Z,50.80
2022-09-23T23:09:09.449Z,50.74
2022-09-23T23:11:36.117Z,50.59
2022-09-23T23:14:03.157Z,50.62
2022-09-23T23:16:35.494Z,50.76
2022-09-23T23:19:04.598Z,51.07
2022-09-23T23:21:31.208Z,50.92
2022-09-23T23:23:57.837Z,50.91
2022-09-23T23:26:29.934Z,50.65
2022-09-23T23:28:56.996Z,50.69
2022-09-23T23:31:25.458Z,50.70
2022-09-23T23:33:52.168Z,50.98
2022-09-23T23:36:20.069Z,50.77
2022-09-23T23:38:47.632Z,51.00
2022-09-23T23:41:16.468Z,50.78
2022-09-23T23:43:46.040Z,50.95
2022-09-23T23:46:13.786Z,51.07
2022-09-23T23:48:41.824Z,50.87
2022-09-23T23:51:11.077Z,50.93
2022-09-23T23:53:39.881Z,51.04
2022-09-23T23:56:15.017Z,51.20
2022-09-23T23:58:41.698Z,51.15
